createdAt,value
2022-09-11T00:12:44.415Z,983.2
2022-09-11T00:27:14.107Z,983.3
2022-09-11T00:41:43.667Z,983.3
2022-09-11T00:56:13.587Z,983.4
2022-09-11T01:10:43.510Z,983.4
2022-09-11T01:25:13.908Z,983.4
2022-09-11T01:39:42.816Z,983.6
2022-09-11T01:54:12.376Z,983.7
2022-09-11T02:08:42.064Z,983.8
2022-09-11T02:23:11.729Z,983.9
2022-09-11T02:37:40.867Z,983.9
2022-09-11T02:52:10.835Z,983.9
2022-09-11T03:06:40.967Z,984.1
2022-09-11T03:21:09.393Z,984
2022-09-11T03:35:38.846Z,984.1
2022-09-11T03:50:07.924Z,984.1
2022-09-11T04:04:37.582Z,984.2
2022-09-11T04:19:07.521Z,984.3
2022-09-11T04:33:37.071Z,984.3
2022-09-11T04:48:05.396Z,984.5
2022-09-11T05:02:35.227Z,984.5
2022-09-11T05:17:04.544Z,984.6
2022-09-11T05:31:32.946Z,984.7
2022-09-11T05:46:01.799Z,984.8
2022-09-11T06:00:30.477Z,985
2022-09-11T06:15:00.306Z,985.2
2022-09-11T06:29:29.631Z,985.3
2022-09-11T06:43:59.304Z,985.3
2022-09-11T06:58:28.974Z,985.4
2022-09-11T07:13:03.649Z,985.5
2022-09-11T07:27:33.493Z,985.5
2022-09-11T07:42:01.670Z,985.6
2022-09-11T07:56:28.603Z,985.6
2022-09-11T08:10:59.458Z,985.7
2022-09-11T08:25:33.289Z,985.7
2022-09-11T08:39:58.462Z,986
2022-09-11T08:54:24.185Z,986.1
2022-09-11T09:08:56.194Z,986.3
2022-09-11T09:23:26.151Z,986.3
2022-09-11T09:37:51.623Z,986.5
2022-09-11T09:52:21.705Z,986.5
2022-09-11T10:06:55.990Z,986.5
2022-09-11T10:21:21.306Z,986.5
2022-09-11T10:35:46.932Z,986.6
2022-09-11T10:50:16.982Z,986.5
2022-09-11T11:04:45.511Z,986.4
2022-09-11T11:19:15.491Z,986.5
2022-09-11T11:33:44.525Z,986.3
2022-09-11T11:48:13.626Z,986.5
2022-09-11T12:02:42.584Z,986.4
2022-09-11T12:17:09.770Z,986.4
2022-09-11T12:31:40.952Z,986.5
2022-09-11T12:46:09.564Z,986.5
2022-09-11T13:00:39.795Z,986.4
2022-09-11T13:15:08.458Z,986.2
2022-09-11T13:29:36.009Z,986.1
2022-09-11T13:44:07.051Z,986
2022-09-11T13:58:33.758Z,986
2022-09-11T14:13:01.609Z,985.9
2022-09-11T14:27:30.223Z,985.9
2022-09-11T14:42:03.610Z,985.7
2022-09-11T14:56:33.664Z,985.7
2022-09-11T15:11:03.762Z,985.7
2022-09-11T15:25:35.421Z,985.5
2022-09-11T15:40:01.293Z,985.4
2022-09-11T15:54:28.773Z,985.4
2022-09-11T16:08:58.280Z,985.3
2022-09-11T16:23:27.225Z,985.5
2022-09-11T16:37:55.801Z,985.4
2022-09-11T16:52:24.922Z,985.3
2022-09-11T17:06:52.248Z,985.3
2022-09-11T17:21:20.906Z,985.3
2022-09-11T17:35:49.034Z,985.3
2022-09-11T17:50:15.271Z,985.3
2022-09-11T18:04:40.349Z,985.4
2022-09-11T18:19:08.389Z,985.3
2022-09-11T18:33:37.769Z,985.3
2022-09-11T18:48:06.615Z,985.4
2022-09-11T19:02:35.538Z,985.4
2022-09-11T19:17:03.198Z,985.4
2022-09-11T19:31:31.127Z,985.4
2022-09-11T19:46:00.631Z,985.5
2022-09-11T20:00:27.139Z,985.6
2022-09-11T20:14:54.202Z,985.7
2022-09-11T20:29:28.535Z,985.7
2022-09-11T20:44:01.040Z,985.6
2022-09-11T20:58:25.091Z,985.6
2022-09-11T21:12:53.599Z,985.5
2022-09-11T21:27:22.594Z,985.4
2022-09-11T21:41:53.552Z,985.4
2022-09-11T21:56:18.470Z,985.3
2022-09-11T22:10:49.036Z,985.2
2022-09-11T22:25:19.366Z,985.1
2022-09-11T22:39:48.296Z,985.1
2022-09-11T22:54:17.253Z,985.1
2022-09-11T23:08:44.793Z,985
2022-09-11T23:23:14.101Z,985.1
2022-09-11T23:37:45.804Z,985
2022-09-11T23:52:12.324Z,985
